Time;durP1;ratioP1;P1;durP2;ratioP2;P2;SDS_P1;SDS_P2;PMS_P1;PMS_P2;Temp;Humidity;BMP_temperature;BMP_pressure;BME280_temperature;BME280_humidity;BME280_pressure;Samples;Min_cycle;Max_cycle;Signal;HPM_P1;HPM_P2
2023/01/24 00:02:14;;;;;;;23.93;20.43;;;3.40;99.90;;;;;;4991125;28;20406;-82
2023/01/24 00:04:40;;;;;;;34.40;24.90;;;3.40;99.90;;;;;;5008758;28;20034;-83
2023/01/24 00:07:06;;;;;;;29.93;26.67;;;3.40;99.90;;;;;;5025519;28;20373;-82
2023/01/24 00:09:32;;;;;;;31.17;25.73;;;3.40;99.90;;;;;;5024914;28;20038;-83
2023/01/24 00:11:58;;;;;;;31.57;25.30;;;3.50;99.90;;;;;;5024424;28;20035;-82
2023/01/24 00:14:24;;;;;;;28.47;25.30;;;3.50;99.90;;;;;;4992428;28;20484;-82
2023/01/24 00:16:50;;;;;;;31.27;27.87;;;3.40;99.90;;;;;;4975593;28;20042;-82
2023/01/24 00:19:16;;;;;;;33.43;27.07;;;3.50;99.90;;;;;;4974313;28;20035;-83
2023/01/24 00:21:42;;;;;;;30.03;25.53;;;3.50;99.90;;;;;;4989743;28;20041;-82
2023/01/24 00:24:08;;;;;;;31.10;26.47;;;3.50;99.90;;;;;;4991912;28;20034;-83
2023/01/24 00:26:34;;;;;;;23.70;19.23;;;3.50;99.90;;;;;;4991753;28;20026;-82
2023/01/24 00:29:01;;;;;;;35.93;27.57;;;3.50;99.90;;;;;;4991478;28;20049;-82
2023/01/24 00:31:27;;;;;;;35.47;26.83;;;3.50;99.90;;;;;;5006690;28;20026;-82
2023/01/24 00:33:53;;;;;;;35.00;28.10;;;3.50;99.90;;;;;;5024842;28;20387;-82
2023/01/24 00:36:19;;;;;;;26.00;23.40;;;3.50;99.90;;;;;;4992119;28;20038;-82
2023/01/24 00:38:45;;;;;;;31.80;26.40;;;3.60;99.90;;;;;;4982305;28;20392;-82
2023/01/24 00:41:11;;;;;;;32.87;26.17;;;3.60;99.90;;;;;;4975720;28;20027;-83
2023/01/24 00:43:37;;;;;;;31.03;25.50;;;3.50;99.90;;;;;;4991791;28;20041;-82
2023/01/24 00:46:07;;;;;;;32.87;26.57;;;3.60;99.90;;;;;;4975154;28;20035;-82
2023/01/24 00:48:34;;;;;;;30.42;23.67;;;3.60;99.90;;;;;;4975671;28;20050;-83
2023/01/24 00:51:00;;;;;;;31.23;26.83;;;3.50;99.90;;;;;;4992029;28;20039;-83
2023/01/24 00:53:26;;;;;;;30.13;26.93;;;3.50;99.90;;;;;;4974617;28;20031;-83
2023/01/24 00:55:54;;;;;;;27.60;24.47;;;3.50;99.90;;;;;;5006154;28;20022;-83
2023/01/24 00:58:21;;;;;;;30.13;26.00;;;3.50;99.90;;;;;;4960592;28;20034;-82
2023/01/24 01:00:47;;;;;;;21.43;19.23;;;3.50;99.90;;;;;;4975522;28;20491;-83
2023/01/24 01:03:17;;;;;;;20.13;16.93;;;3.50;99.90;;;;;;4974556;28;20049;-82
2023/01/24 01:05:43;;;;;;;25.93;21.67;;;3.50;99.90;;;;;;5024113;28;20034;-82
2023/01/24 01:08:09;;;;;;;18.93;17.03;;;3.50;99.90;;;;;;5007973;28;20035;-83
2023/01/24 01:10:35;;;;;;;26.73;23.77;;;3.50;99.90;;;;;;5024017;28;20041;-82
2023/01/24 01:13:02;;;;;;;25.00;22.37;;;3.50;99.90;;;;;;5027833;28;20383;-82
2023/01/24 01:15:28;;;;;;;30.33;24.33;;;3.40;99.90;;;;;;4987633;28;20041;-83
2023/01/24 01:17:55;;;;;;;29.87;25.20;;;3.50;99.90;;;;;;4975348;28;20030;-82
2023/01/24 01:20:21;;;;;;;29.97;25.30;;;3.50;99.90;;;;;;4991927;28;20022;-82
2023/01/24 01:22:47;;;;;;;24.57;19.00;;;3.50;99.90;;;;;;4990725;28;20034;-82
2023/01/24 01:25:13;;;;;;;30.30;23.53;;;3.50;99.90;;;;;;5007758;28;20057;-82
2023/01/24 01:27:39;;;;;;;28.03;24.53;;;3.40;99.90;;;;;;5007122;28;20038;-83
2023/01/24 01:30:06;;;;;;;29.17;25.83;;;3.50;99.90;;;;;;4975219;28;20471;-83
2023/01/24 01:32:32;;;;;;;32.33;25.80;;;3.50;99.90;;;;;;4991787;28;20030;-83
2023/01/24 01:34:58;;;;;;;33.60;25.97;;;3.50;99.90;;;;;;4975078;28;20057;-83
2023/01/24 01:37:24;;;;;;;29.13;25.57;;;3.50;99.90;;;;;;4990767;28;20030;-82
2023/01/24 01:39:50;;;;;;;22.53;20.17;;;3.50;99.90;;;;;;5024540;28;20042;-82
2023/01/24 01:42:16;;;;;;;31.90;26.77;;;3.50;99.90;;;;;;5032431;28;20053;-83
2023/01/24 01:44:49;;;;;;;30.67;26.80;;;3.50;99.90;;;;;;5010833;28;20048;-82
2023/01/24 01:47:32;;;;;;;32.63;26.47;;;3.40;99.90;;;;;;5010744;28;20037;-82
2023/01/24 01:50:16;;;;;;;29.67;25.73;;;3.50;99.90;;;;;;5010604;28;20041;-83
2023/01/24 01:52:43;;;;;;;33.97;26.67;;;3.50;99.90;;;;;;4986154;28;20042;-82
2023/01/24 01:55:16;;;;;;;32.83;27.23;;;3.50;99.90;;;;;;5008967;28;20134;-83
2023/01/24 01:57:42;;;;;;;31.50;26.43;;;3.50;99.90;;;;;;5011164;28;20022;-82
2023/01/24 02:00:16;;;;;;;27.83;24.83;;;3.50;99.90;;;;;;5010937;28;20030;-82
2023/01/24 02:02:45;;;;;;;33.47;27.20;;;3.50;99.90;;;;;;4995689;28;20042;-82
2023/01/24 02:05:13;;;;;;;30.57;26.90;;;3.40;99.90;;;;;;5027006;28;20371;-83
2023/01/24 02:07:49;;;;;;;34.53;28.00;;;3.50;99.90;;;;;;5003280;28;20058;-82
2023/01/24 02:10:17;;;;;;;22.27;19.80;;;3.50;99.90;;;;;;5007895;28;20050;-83
2023/01/24 02:12:44;;;;;;;30.30;26.63;;;3.40;99.90;;;;;;5014586;28;20044;-83
2023/01/24 02:18:00;;;;;;;30.37;26.87;;;3.50;99.90;;;;;;5000249;28;20047;-83
2023/01/24 02:20:46;;;;;;;25.43;23.07;;;3.50;99.90;;;;;;5010350;28;20027;-82
2023/01/24 02:23:15;;;;;;;30.80;27.23;;;3.50;99.90;;;;;;4994933;28;20479;-82
2023/01/24 02:25:50;;;;;;;30.37;27.10;;;3.40;99.90;;;;;;4995323;28;20034;-82
2023/01/24 02:28:16;;;;;;;29.43;26.40;;;3.50;99.90;;;;;;4994243;28;20050;-82
2023/01/24 02:30:42;;;;;;;28.13;24.77;;;3.50;99.90;;;;;;5010595;28;20038;-82
2023/01/24 02:33:10;;;;;;;27.27;24.33;;;3.40;99.90;;;;;;5009211;28;20045;-82
2023/01/24 02:35:36;;;;;;;26.83;23.93;;;3.50;99.90;;;;;;5013591;28;20463;-82
2023/01/24 02:38:04;;;;;;;32.40;27.70;;;3.50;99.90;;;;;;4984862;28;20527;-82
2023/01/24 02:40:30;;;;;;;22.07;19.93;;;3.50;99.90;;;;;;5025860;28;20030;-83
2023/01/24 02:42:58;;;;;;;21.40;19.63;;;3.40;99.90;;;;;;5010519;28;20043;-82
2023/01/24 02:45:28;;;;;;;31.13;27.23;;;3.40;99.90;;;;;;5010436;28;20031;-83
2023/01/24 02:47:55;;;;;;;27.40;24.65;;;3.40;99.90;;;;;;5009623;28;20038;-81
2023/01/24 02:50:23;;;;;;;23.87;21.63;;;3.40;99.90;;;;;;4994442;28;20042;-83
2023/01/24 02:58:05;;;;;;;35.67;27.17;;;3.40;99.90;;;;;;5000191;28;20041;-82
2023/01/24 02:58:20;;;;;;;31.17;25.80;;;3.40;99.90;;;;;;5007482;28;20035;-82
2023/01/24 03:00:46;;;;;;;34.13;26.53;;;3.50;99.90;;;;;;4991450;28;20034;-83
2023/01/24 03:03:12;;;;;;;30.33;24.33;;;3.50;99.90;;;;;;5004606;28;20464;-83
2023/01/24 03:05:57;;;;;;;36.83;28.50;;;3.50;99.90;;;;;;4988221;28;20030;-83
2023/01/24 03:08:27;;;;;;;34.77;26.73;;;3.50;99.90;;;;;;4992053;28;20042;-83
2023/01/24 03:10:53;;;;;;;38.90;28.65;;;3.50;99.90;;;;;;4993510;28;20023;-83
2023/01/24 03:35:17;;;;;;;35.63;27.40;;;3.50;99.90;;;;;;4993413;28;20114;-83
2023/01/24 03:40:28;;;;;;;34.63;28.17;;;3.50;99.90;;;;;;5011792;28;20030;-82
2023/01/24 03:42:54;;;;;;;36.73;28.13;;;3.40;99.90;;;;;;5025768;28;20030;-82
2023/01/24 03:45:22;;;;;;;35.77;27.63;;;3.40;99.90;;;;;;4993619;28;20037;-83
2023/01/24 03:47:55;;;;;;;32.50;26.73;;;3.40;99.90;;;;;;5008819;28;20344;-83
2023/01/24 03:53:11;;;;;;;34.13;24.33;;;3.40;99.90;;;;;;4995374;28;20106;-82
2023/01/24 03:55:37;;;;;;;26.57;22.90;;;3.50;99.90;;;;;;4992950;28;20050;-83
2023/01/24 03:58:03;;;;;;;37.00;27.50;;;3.40;99.90;;;;;;4975705;28;20046;-83
2023/01/24 04:00:29;;;;;;;21.27;19.20;;;3.40;99.90;;;;;;5008291;28;20034;-82
2023/01/24 04:02:55;;;;;;;35.97;26.63;;;3.40;99.90;;;;;;4991681;28;20043;-82
2023/01/24 04:05:22;;;;;;;32.63;24.47;;;3.40;99.90;;;;;;4987119;28;20495;-82
2023/01/24 04:07:48;;;;;;;37.20;26.30;;;3.40;99.90;;;;;;4978824;28;20033;-82
2023/01/24 04:10:14;;;;;;;25.10;22.33;;;3.40;99.90;;;;;;5008926;28;20505;-82
2023/01/24 04:12:43;;;;;;;32.93;25.70;;;3.40;99.90;;;;;;4993395;28;20034;-82
2023/01/24 04:15:13;;;;;;;35.00;27.53;;;3.40;99.90;;;;;;4992818;28;20034;-81
2023/01/24 04:17:39;;;;;;;25.27;22.50;;;3.40;99.90;;;;;;4985916;28;20042;-81
2023/01/24 04:20:06;;;;;;;23.57;21.03;;;3.40;99.90;;;;;;5015539;28;20430;-81
2023/01/24 04:22:32;;;;;;;24.77;22.20;;;3.40;99.90;;;;;;4992031;28;20019;-81
2023/01/24 04:24:58;;;;;;;29.53;24.43;;;3.40;99.90;;;;;;4992486;28;20031;-81
2023/01/24 04:27:24;;;;;;;24.70;22.23;;;3.40;99.90;;;;;;4991775;28;20062;-82
2023/01/24 04:29:50;;;;;;;29.63;24.50;;;3.40;99.90;;;;;;5008120;28;20050;-81
2023/01/24 04:32:16;;;;;;;36.30;27.93;;;3.40;99.90;;;;;;4992861;28;20030;-81
2023/01/24 04:34:42;;;;;;;22.60;20.57;;;3.40;99.90;;;;;;4991930;28;20049;-81
2023/01/24 04:37:08;;;;;;;20.30;18.23;;;3.40;99.90;;;;;;4945076;28;20039;-82
2023/01/24 04:39:34;;;;;;;31.93;26.77;;;3.40;99.90;;;;;;4989150;28;20039;-82
2023/01/24 04:42:01;;;;;;;33.83;26.40;;;3.40;99.90;;;;;;4986865;28;20460;-81
2023/01/24 04:44:27;;;;;;;23.30;20.83;;;3.40;99.90;;;;;;4991147;28;20039;-82
2023/01/24 04:46:53;;;;;;;29.27;23.80;;;3.40;99.90;;;;;;5022015;28;20027;-81
2023/01/24 04:49:19;;;;;;;30.47;25.67;;;3.40;99.90;;;;;;5021096;28;20289;-81
2023/01/24 04:51:49;;;;;;;25.67;23.13;;;3.40;99.90;;;;;;5007983;28;20037;-84
2023/01/24 04:54:15;;;;;;;25.77;22.33;;;3.30;99.90;;;;;;4992746;28;20030;-83
2023/01/24 04:56:41;;;;;;;26.40;23.63;;;3.40;99.90;;;;;;5000152;28;20475;-82
2023/01/24 04:59:09;;;;;;;27.67;23.70;;;3.40;99.90;;;;;;5011327;28;20038;-83
2023/01/24 05:01:36;;;;;;;28.90;25.70;;;3.30;99.90;;;;;;5002228;28;20027;-83
2023/01/24 05:04:02;;;;;;;37.87;25.43;;;3.30;99.90;;;;;;4991938;28;20034;-83
2023/01/24 05:06:31;;;;;;;32.83;26.10;;;3.40;99.90;;;;;;5024011;28;20027;-84
2023/01/24 05:08:57;;;;;;;34.10;24.17;;;3.40;99.90;;;;;;5024346;28;20037;-81
2023/01/24 05:11:23;;;;;;;54.97;25.00;;;3.40;99.90;;;;;;5007315;28;20045;-82
2023/01/24 05:13:49;;;;;;;26.23;21.03;;;3.40;99.90;;;;;;5004996;28;20030;-82
2023/01/24 05:16:16;;;;;;;23.70;21.13;;;3.40;99.90;;;;;;4994206;28;20476;-82
2023/01/24 05:18:42;;;;;;;25.63;22.70;;;3.40;99.90;;;;;;4975022;28;20037;-82
2023/01/24 05:21:15;;;;;;;22.40;20.27;;;3.40;99.90;;;;;;4990799;28;20384;-83
2023/01/24 05:23:42;;;;;;;52.57;23.33;;;3.30;99.90;;;;;;5023424;28;20045;-82
2023/01/24 05:26:08;;;;;;;22.47;19.43;;;3.40;99.90;;;;;;5024559;28;20034;-82
2023/01/24 05:28:35;;;;;;;21.60;19.40;;;3.30;99.90;;;;;;5024011;28;20050;-83
2023/01/24 05:31:03;;;;;;;24.80;22.30;;;3.20;99.90;;;;;;5010159;28;20034;-83
2023/01/24 05:33:29;;;;;;;24.23;21.73;;;3.30;99.90;;;;;;5027920;28;20022;-82
2023/01/24 05:36:03;;;;;;;30.47;25.03;;;3.30;99.90;;;;;;5027106;28;20030;-82
2023/01/24 05:38:29;;;;;;;32.50;25.53;;;3.30;99.90;;;;;;5028186;28;20022;-83
2023/01/24 05:40:59;;;;;;;21.07;18.97;;;3.30;99.90;;;;;;5028083;28;20380;-83
2023/01/24 05:43:26;;;;;;;34.53;25.30;;;3.30;99.90;;;;;;5027786;28;20026;-82
2023/01/24 05:45:59;;;;;;;30.87;24.60;;;3.30;99.90;;;;;;5010694;28;20030;-82
2023/01/24 05:48:25;;;;;;;32.30;25.57;;;3.40;99.90;;;;;;5010675;28;20026;-83
2023/01/24 05:50:58;;;;;;;23.87;19.80;;;3.40;99.90;;;;;;4994611;28;20046;-83
2023/01/24 05:53:29;;;;;;;31.60;23.80;;;3.30;99.90;;;;;;4996124;28;20030;-83
2023/01/24 05:55:59;;;;;;;22.17;20.17;;;3.30;99.90;;;;;;5010762;28;20495;-82
2023/01/24 05:58:26;;;;;;;29.48;24.73;;;3.30;99.90;;;;;;5010961;28;20038;-82
2023/01/24 06:00:52;;;;;;;24.27;21.70;;;3.30;99.90;;;;;;4994894;28;20034;-82
2023/01/24 06:03:18;;;;;;;21.27;19.27;;;3.30;99.90;;;;;;5027438;28;20034;-82
2023/01/24 06:05:49;;;;;;;25.13;20.23;;;3.30;99.90;;;;;;5027175;28;20472;-83
2023/01/24 06:08:16;;;;;;;31.30;24.13;;;3.30;99.90;;;;;;5027387;28;20033;-82
2023/01/24 06:10:42;;;;;;;22.77;20.47;;;3.30;99.90;;;;;;5026697;28;20053;-82
2023/01/24 06:13:08;;;;;;;21.30;19.37;;;3.20;99.90;;;;;;4994409;28;20028;-82
2023/01/24 06:15:34;;;;;;;24.30;20.50;;;3.20;99.90;;;;;;4995578;28;20030;-82
2023/01/24 06:18:02;;;;;;;29.60;20.73;;;3.20;99.90;;;;;;4994758;28;20041;-83
2023/01/24 06:20:28;;;;;;;25.83;20.43;;;3.20;99.90;;;;;;4994936;28;20033;-82
2023/01/24 06:23:00;;;;;;;24.90;21.73;;;3.20;99.90;;;;;;4994590;28;20030;-83
2023/01/24 06:25:26;;;;;;;20.37;18.13;;;3.20;99.90;;;;;;4993664;28;20049;-82
2023/01/24 06:27:53;;;;;;;21.73;19.43;;;3.20;99.90;;;;;;4994265;28;20046;-82
2023/01/24 06:30:19;;;;;;;18.83;17.27;;;3.20;99.90;;;;;;4993904;28;20045;-82
2023/01/24 06:33:02;;;;;;;21.03;19.00;;;3.20;99.90;;;;;;4977751;28;20034;-82
2023/01/24 06:36:05;;;;;;;23.30;19.67;;;3.20;99.90;;;;;;4994869;28;20026;-82
2023/01/24 06:38:31;;;;;;;27.03;21.73;;;3.20;99.90;;;;;;4994527;28;20053;-82
2023/01/24 06:40:59;;;;;;;20.43;18.43;;;3.30;99.90;;;;;;4994298;28;20037;-83
2023/01/24 06:43:25;;;;;;;22.30;20.00;;;3.20;99.90;;;;;;5009884;28;20037;-82
2023/01/24 06:45:51;;;;;;;29.63;23.20;;;3.20;99.90;;;;;;5026357;28;20045;-82
2023/01/24 06:48:18;;;;;;;32.50;22.47;;;3.20;99.90;;;;;;5010583;28;20022;-83
2023/01/24 06:50:44;;;;;;;23.17;20.57;;;3.30;99.90;;;;;;4996515;28;20042;-82
2023/01/24 06:53:11;;;;;;;25.73;20.50;;;3.30;99.90;;;;;;5012865;28;20025;-81
2023/01/24 06:55:37;;;;;;;29.93;22.97;;;3.30;99.90;;;;;;5000795;28;20033;-82
2023/01/24 06:58:03;;;;;;;22.93;18.30;;;3.30;99.90;;;;;;5009984;28;20471;-82
2023/01/24 07:00:30;;;;;;;26.20;21.57;;;3.30;99.90;;;;;;5026638;28;20038;-81
2023/01/24 07:03:00;;;;;;;21.80;19.60;;;3.30;99.90;;;;;;5037145;28;20042;-82
2023/01/24 07:05:27;;;;;;;30.67;24.05;;;3.30;99.90;;;;;;4993614;28;20033;-85
2023/01/24 07:07:53;;;;;;;26.93;22.43;;;3.30;99.90;;;;;;4993103;28;20471;-86
2023/01/24 07:10:19;;;;;;;21.50;19.40;;;3.30;99.90;;;;;;4988123;28;20444;-82
2023/01/24 07:12:45;;;;;;;19.47;17.37;;;3.30;99.90;;;;;;4994448;28;20030;-82
2023/01/24 07:15:12;;;;;;;17.90;16.37;;;3.30;99.90;;;;;;4993416;28;20034;-84
2023/01/24 07:17:38;;;;;;;28.17;21.37;;;3.20;99.90;;;;;;4997245;28;20023;-83
2023/01/24 07:20:05;;;;;;;21.67;17.83;;;3.30;99.90;;;;;;5009559;28;20038;-86
2023/01/24 07:22:31;;;;;;;32.57;24.67;;;3.20;99.90;;;;;;5001423;28;20038;-85
2023/01/24 07:24:57;;;;;;;28.67;21.93;;;3.30;99.90;;;;;;4999789;28;20034;-84
2023/01/24 07:27:24;;;;;;;26.57;19.97;;;3.30;99.90;;;;;;5025846;28;20467;-83
2023/01/24 07:29:50;;;;;;;28.50;21.63;;;3.30;99.90;;;;;;5002276;28;20042;-86
2023/01/24 07:32:16;;;;;;;21.50;18.13;;;3.30;99.90;;;;;;4977737;28;20642;-85
2023/01/24 07:34:43;;;;;;;26.57;20.30;;;3.40;99.90;;;;;;5025738;28;20034;-85
2023/01/24 07:37:09;;;;;;;34.63;26.23;;;3.30;99.90;;;;;;5009787;28;20014;-85
2023/01/24 07:39:35;;;;;;;34.83;25.17;;;3.30;99.90;;;;;;5025311;28;20027;-84
2023/01/24 07:42:01;;;;;;;19.57;17.57;;;3.40;99.90;;;;;;5023617;28;20487;-84
2023/01/24 07:44:27;;;;;;;25.10;19.67;;;3.40;99.90;;;;;;4984234;28;20050;-83
2023/01/24 07:46:53;;;;;;;28.63;19.80;;;3.30;99.90;;;;;;5002798;28;20391;-83
2023/01/24 07:49:19;;;;;;;33.87;22.60;;;3.30;99.90;;;;;;5008822;28;20035;-84
2023/01/24 07:51:48;;;;;;;38.87;27.33;;;3.40;99.90;;;;;;5025429;28;20507;-84
2023/01/24 07:54:14;;;;;;;32.30;24.33;;;3.30;99.90;;;;;;5024159;28;20030;-84
2023/01/24 07:56:40;;;;;;;29.30;21.50;;;3.30;99.90;;;;;;5025328;28;20026;-84
2023/01/24 07:59:06;;;;;;;32.30;23.27;;;3.30;99.90;;;;;;5009032;28;20026;-84
2023/01/24 08:01:32;;;;;;;39.90;27.17;;;3.30;99.90;;;;;;5024304;28;20031;-84
2023/01/24 08:03:58;;;;;;;41.07;27.87;;;3.30;99.90;;;;;;5008997;28;20033;-82
2023/01/24 08:06:24;;;;;;;41.43;29.30;;;3.30;99.90;;;;;;4990241;28;20045;-82
2023/01/24 08:08:51;;;;;;;36.07;25.70;;;3.40;99.90;;;;;;4993390;28;20030;-82
2023/01/24 08:11:17;;;;;;;32.17;22.50;;;3.40;99.90;;;;;;4976017;28;20049;-83
2023/01/24 08:13:44;;;;;;;23.63;18.63;;;3.40;99.90;;;;;;4992281;28;20026;-83
2023/01/24 08:16:10;;;;;;;37.07;25.23;;;3.40;99.90;;;;;;5001790;28;20047;-84
2023/01/24 08:18:40;;;;;;;38.53;24.63;;;3.30;99.90;;;;;;5021552;28;20037;-84
2023/01/24 08:21:06;;;;;;;41.67;26.60;;;3.30;99.90;;;;;;4989488;28;20034;-86
2023/01/24 08:23:32;;;;;;;18.07;16.10;;;3.30;99.90;;;;;;4979739;28;20030;-91
2023/01/24 08:25:59;;;;;;;26.90;20.63;;;3.30;99.90;;;;;;5007702;28;20018;-83
2023/01/24 08:28:25;;;;;;;43.30;28.73;;;3.30;99.90;;;;;;4967501;28;20045;-85
2023/01/24 08:30:52;;;;;;;38.93;26.83;;;3.30;99.90;;;;;;5008608;28;20038;-86
2023/01/24 08:33:18;;;;;;;28.23;22.03;;;3.40;99.90;;;;;;5024262;28;20349;-87
2023/01/24 08:35:45;;;;;;;38.77;26.30;;;3.40;99.90;;;;;;5020926;28;20029;-86
2023/01/24 08:38:12;;;;;;;40.50;28.07;;;3.40;99.90;;;;;;4990268;28;20217;-87
2023/01/24 08:40:38;;;;;;;29.40;21.77;;;3.30;99.90;;;;;;5023481;28;20034;-84
2023/01/24 08:43:04;;;;;;;22.97;18.43;;;3.40;99.90;;;;;;4998145;28;20030;-83
2023/01/24 08:45:31;;;;;;;31.27;22.07;;;3.40;99.90;;;;;;5024310;28;20034;-84
2023/01/24 08:47:57;;;;;;;16.40;14.67;;;3.40;99.90;;;;;;5003344;28;20372;-85
2023/01/24 08:50:23;;;;;;;28.73;20.10;;;3.40;99.90;;;;;;4991046;28;20431;-84
2023/01/24 08:52:49;;;;;;;37.70;23.87;;;3.40;99.90;;;;;;5003554;28;20396;-86
2023/01/24 08:55:15;;;;;;;18.27;16.33;;;3.40;99.90;;;;;;5024561;28;20034;-85
2023/01/24 08:57:42;;;;;;;30.83;22.07;;;3.40;99.90;;;;;;4990989;28;20047;-85
2023/01/24 09:00:09;;;;;;;31.73;23.73;;;3.40;99.90;;;;;;5007114;28;20046;-84
2023/01/24 09:02:37;;;;;;;35.60;24.40;;;3.40;99.90;;;;;;4976744;28;20407;-85
2023/01/24 09:05:05;;;;;;;33.33;25.07;;;3.50;99.90;;;;;;4997268;28;20038;-85
2023/01/24 09:07:31;;;;;;;32.67;22.10;;;3.70;99.90;;;;;;5009407;28;20494;-84
2023/01/24 09:09:57;;;;;;;25.07;20.60;;;3.70;99.90;;;;;;5027070;28;20042;-84
2023/01/24 09:12:23;;;;;;;34.73;24.67;;;3.60;99.90;;;;;;5011979;28;20042;-84
2023/01/24 09:14:49;;;;;;;39.83;25.33;;;3.60;99.90;;;;;;4995767;28;20038;-84
2023/01/24 09:17:15;;;;;;;38.10;25.97;;;3.60;99.90;;;;;;5028100;28;20503;-84
2023/01/24 09:19:41;;;;;;;28.20;20.63;;;3.70;99.90;;;;;;4995379;28;20046;-84
2023/01/24 09:22:07;;;;;;;31.77;22.80;;;3.70;99.90;;;;;;4996283;28;20499;-84
2023/01/24 09:24:33;;;;;;;25.97;20.43;;;3.70;99.90;;;;;;4996638;28;20026;-84
2023/01/24 09:26:59;;;;;;;20.30;16.43;;;3.60;99.90;;;;;;5026946;28;20399;-85
2023/01/24 09:29:25;;;;;;;21.57;16.50;;;3.60;99.90;;;;;;4995537;28;20050;-84
2023/01/24 09:31:54;;;;;;;18.97;16.97;;;3.60;99.90;;;;;;5008124;28;20416;-84
2023/01/24 09:34:20;;;;;;;23.80;19.73;;;3.50;99.90;;;;;;4977053;28;20038;-85
2023/01/24 09:36:50;;;;;;;29.53;21.53;;;3.60;99.90;;;;;;5008412;28;20035;-84
2023/01/24 09:39:16;;;;;;;38.90;24.97;;;3.60;99.90;;;;;;5008463;28;20034;-85
2023/01/24 09:42:00;;;;;;;38.93;27.97;;;3.60;99.90;;;;;;5008437;28;20027;-85
2023/01/24 09:45:06;;;;;;;24.30;19.33;;;3.60;99.90;;;;;;5006535;28;20476;-84
2023/01/24 09:47:37;;;;;;;30.03;22.03;;;3.50;99.90;;;;;;5012631;28;20030;-84
2023/01/24 09:50:04;;;;;;;35.00;25.30;;;3.40;99.90;;;;;;5027684;28;20050;-84
2023/01/24 09:52:36;;;;;;;44.30;29.00;;;3.50;99.90;;;;;;5011802;28;20496;-85
2023/01/24 09:55:13;;;;;;;32.13;20.07;;;3.50;99.90;;;;;;5010929;28;20049;-84
2023/01/24 09:58:04;;;;;;;32.83;22.47;;;3.50;99.90;;;;;;5025474;28;20034;-84
2023/01/24 10:00:31;;;;;;;43.53;27.30;;;3.50;99.90;;;;;;4997607;28;20023;-84
2023/01/24 10:02:59;;;;;;;36.00;26.07;;;3.60;99.90;;;;;;5026547;28;20027;-84
2023/01/24 10:05:30;;;;;;;22.23;17.43;;;3.50;99.90;;;;;;5011071;28;20496;-84
2023/01/24 10:08:01;;;;;;;27.43;20.80;;;3.60;99.90;;;;;;4996117;28;20031;-84
2023/01/24 10:10:27;;;;;;;;;;;3.60;99.90;;;;;;5027432;28;20061;-84
2023/01/24 10:13:19;;;;;;;20.67;18.17;;;3.50;99.90;;;;;;4996075;28;20367;-84
2023/01/24 10:15:45;;;;;;;24.23;18.33;;;3.50;99.90;;;;;;5008255;28;20030;-85
2023/01/24 10:18:27;;;;;;;31.53;22.17;;;3.40;99.90;;;;;;4994472;28;20102;-84
2023/01/24 10:20:56;;;;;;;35.23;24.47;;;3.40;99.90;;;;;;4989981;28;20039;-84
2023/01/24 10:23:33;;;;;;;43.03;28.37;;;3.50;99.90;;;;;;4974844;28;20492;-84
2023/01/24 10:26:14;;;;;;;25.83;18.40;;;3.60;99.90;;;;;;5005783;28;20453;-84
2023/01/24 10:28:42;;;;;;;36.27;23.93;;;3.60;99.90;;;;;;4989488;28;20043;-84
2023/01/24 10:31:27;;;;;;;40.67;27.27;;;3.60;99.90;;;;;;4992113;28;20042;-84
2023/01/24 10:34:14;;;;;;;23.30;18.10;;;3.60;99.90;;;;;;5021696;28;20041;-85
2023/01/24 10:36:50;;;;;;;38.27;25.60;;;3.60;99.90;;;;;;5008950;28;20027;-84
2023/01/24 10:39:16;;;;;;;22.90;17.93;;;3.60;99.90;;;;;;5010585;28;20468;-84
2023/01/24 10:41:42;;;;;;;30.50;20.30;;;3.60;99.90;;;;;;5027286;28;20030;-85
2023/01/24 10:44:28;;;;;;;44.23;29.10;;;3.60;99.90;;;;;;5010707;28;20045;-84
2023/01/24 10:47:21;;;;;;;30.83;21.80;;;3.60;99.90;;;;;;4994501;28;20026;-84
2023/01/24 10:49:51;;;;;;;27.70;18.83;;;3.70;99.90;;;;;;5020963;28;20031;-85
2023/01/24 10:52:21;;;;;;;44.23;28.30;;;3.70;99.90;;;;;;5010349;28;20061;-85
2023/01/24 10:54:48;;;;;;;44.87;28.37;;;3.70;99.90;;;;;;5010460;28;20034;-85
2023/01/24 10:57:23;;;;;;;42.90;28.13;;;3.80;99.90;;;;;;4995189;28;20045;-85
2023/01/24 10:59:49;;;;;;;26.40;19.87;;;3.90;99.90;;;;;;5026413;28;20042;-85
2023/01/24 11:02:21;;;;;;;17.93;16.03;;;3.90;99.90;;;;;;5008983;28;20483;-85
2023/01/24 11:04:49;;;;;;;24.00;18.53;;;3.80;99.90;;;;;;5026176;28;20029;-85
2023/01/24 11:07:27;;;;;;;44.93;29.30;;;3.70;99.90;;;;;;5026739;28;20034;-85
2023/01/24 11:09:53;;;;;;;34.83;20.67;;;3.70;99.90;;;;;;5009488;28;20480;-85
2023/01/24 11:12:21;;;;;;;25.13;19.77;;;3.70;99.90;;;;;;5009941;28;20046;-85
2023/01/24 11:14:50;;;;;;;44.13;27.00;;;3.70;99.90;;;;;;5009502;28;20061;-85
2023/01/24 11:17:34;;;;;;;33.10;22.67;;;3.70;99.90;;;;;;5025443;28;20039;-85
2023/01/24 11:20:15;;;;;;;18.77;16.17;;;3.70;99.90;;;;;;5025655;28;20037;-85
2023/01/24 11:22:41;;;;;;;32.53;23.02;;;3.70;99.90;;;;;;4977158;28;20049;-86
2023/01/24 11:25:13;;;;;;;41.50;26.67;;;3.80;99.90;;;;;;4970924;28;20038;-85
2023/01/24 11:27:47;;;;;;;56.13;30.97;;;3.80;99.90;;;;;;5027073;28;20614;-84
2023/01/24 11:30:13;;;;;;;33.93;22.30;;;3.90;99.90;;;;;;4997263;28;20373;-85
2023/01/24 11:32:46;;;;;;;46.43;28.53;;;3.90;99.90;;;;;;4994696;28;20049;-84
2023/01/24 11:35:24;;;;;;;28.37;20.40;;;3.90;99.90;;;;;;4977592;28;20495;-88
2023/01/24 11:38:17;;;;;;;42.17;24.03;;;3.80;99.90;;;;;;5023862;28;20038;-81
2023/01/24 11:41:03;;;;;;;42.90;28.23;;;3.80;99.90;;;;;;4995920;28;20498;-81
2023/01/24 11:43:45;;;;;;;36.37;23.97;;;3.80;99.90;;;;;;4990811;28;20026;-81
2023/01/24 11:47:01;;;;;;;56.60;30.97;;;3.80;99.90;;;;;;5024902;28;20035;-82
2023/01/24 11:49:41;;;;;;;33.87;22.33;;;3.80;99.90;;;;;;5010422;28;20042;-81
2023/01/24 11:52:32;;;;;;;49.00;29.93;;;3.80;99.90;;;;;;4989889;28;20185;-82
2023/01/24 11:55:26;;;;;;;49.13;29.50;;;3.90;99.90;;;;;;4991776;28;20033;-82
2023/01/24 11:58:17;;;;;;;49.93;30.37;;;3.90;99.90;;;;;;4933281;29;20393;-83
2023/01/24 12:01:15;;;;;;;40.45;25.98;;;3.90;99.90;;;;;;4932271;29;20059;-82
2023/01/24 12:03:53;;;;;;;25.77;19.43;;;3.90;99.90;;;;;;4917604;29;20044;-81
2023/01/24 12:06:40;;;;;;;48.30;29.43;;;3.80;99.90;;;;;;4931982;29;20040;-84
2023/01/24 12:09:24;;;;;;;45.07;26.97;;;3.80;99.90;;;;;;4932798;29;20051;-84
2023/01/24 12:12:08;;;;;;;29.33;22.37;;;3.80;99.90;;;;;;4933517;29;20055;-84
2023/01/24 12:14:58;;;;;;;44.90;27.60;;;3.90;99.90;;;;;;4926980;29;20036;-84
2023/01/24 12:17:36;;;;;;;50.47;31.40;;;4.00;99.90;;;;;;4912980;29;20063;-85
2023/01/24 12:20:27;;;;;;;45.23;28.97;;;4.00;99.90;;;;;;4922435;29;20032;-85
2023/01/24 12:22:53;;;;;;;;;;;4.00;99.90;;;;;;4932615;29;20374;-84
2023/01/24 12:25:30;;;;;;;33.10;22.30;;;3.90;99.90;;;;;;4923445;29;20637;-84
2023/01/24 12:27:57;;;;;;;25.27;20.60;;;3.90;99.90;;;;;;4921971;29;20143;-84
2023/01/24 12:30:49;;;;;;;48.47;29.03;;;3.80;99.90;;;;;;4932323;28;20032;-85
2023/01/24 12:33:34;;;;;;;45.63;28.73;;;3.80;99.90;;;;;;4941941;28;20036;-85
2023/01/24 12:36:09;;;;;;;37.23;24.23;;;3.90;99.90;;;;;;4973523;28;20396;-85
2023/01/24 12:38:44;;;;;;;33.23;23.03;;;4.00;99.90;;;;;;4971624;28;20035;-86
2023/01/24 12:41:32;;;;;;;40.37;26.40;;;3.90;99.90;;;;;;4991488;28;20365;-86
2023/01/24 12:44:03;;;;;;;22.33;17.43;;;3.90;99.90;;;;;;5007498;28;20033;-86
2023/01/24 12:46:38;;;;;;;36.50;23.47;;;3.80;99.90;;;;;;5010847;28;20391;-85
2023/01/24 12:49:41;;;;;;;34.10;21.90;;;3.80;99.90;;;;;;5011900;28;20026;-85
2023/01/24 12:52:40;;;;;;;29.80;22.37;;;3.80;99.90;;;;;;5011542;28;20049;-85
2023/01/24 12:55:12;;;;;;;40.43;26.37;;;3.80;99.90;;;;;;5006462;28;20471;-85
2023/01/24 12:58:02;;;;;;;46.50;30.50;;;3.90;99.90;;;;;;4991402;28;20034;-85
2023/01/24 13:00:39;;;;;;;45.50;26.73;;;3.90;99.90;;;;;;5004760;28;20026;-85
2023/01/24 13:03:30;;;;;;;46.53;29.97;;;3.90;99.90;;;;;;4994302;28;20504;-84
2023/01/24 13:06:09;;;;;;;27.80;20.80;;;4.00;99.90;;;;;;4972197;28;20050;-85
2023/01/24 13:08:49;;;;;;;21.83;18.60;;;4.00;99.90;;;;;;5007378;28;20037;-85
2023/01/24 13:11:21;;;;;;;46.75;29.17;;;3.90;99.90;;;;;;5019865;28;20042;-85
2023/01/24 13:14:25;;;;;;;50.13;30.60;;;3.90;99.90;;;;;;5007345;28;20031;-84
2023/01/24 13:17:06;;;;;;;47.27;30.13;;;3.90;99.90;;;;;;4974953;28;20423;-86
2023/01/24 13:19:32;;;;;;;18.67;16.75;;;4.00;99.90;;;;;;4999244;28;20413;-86
2023/01/24 13:22:23;;;;;;;26.60;19.80;;;4.10;99.90;;;;;;4995950;28;20045;-86
2023/01/24 13:24:51;;;;;;;37.85;24.13;;;4.10;99.90;;;;;;4974271;28;20518;-86
2023/01/24 13:27:26;;;;;;;38.20;23.97;;;4.10;99.90;;;;;;4985213;28;20042;-86
2023/01/24 13:30:19;;;;;;;26.70;20.53;;;4.10;99.90;;;;;;5007103;28;20165;-86